Time;durP1;ratioP1;P1;durP2;ratioP2;P2;SDS_P1;SDS_P2;PMS_P1;PMS_P2;Temp;Humidity;BMP_temperature;BMP_pressure;BME280_temperature;BME280_humidity;BME280_pressure;Samples;Min_cycle;Max_cycle;Signal;HPM_P1;HPM_P2
2022/06/07 00:02:28;;;;;;;6.10;4.33;;;16.50;99.90;;;;;;5034308;28;20404;-71
2022/06/07 00:04:54;;;;;;;5.07;3.83;;;16.40;99.90;;;;;;5034114;28;20179;-72
2022/06/07 00:07:21;;;;;;;4.43;3.20;;;16.40;99.90;;;;;;5034163;28;20419;-71
2022/06/07 00:09:46;;;;;;;5.13;4.30;;;16.40;99.90;;;;;;5034450;28;20157;-71
2022/06/07 00:12:12;;;;;;;4.93;4.33;;;16.30;99.90;;;;;;5033930;28;20454;-71
2022/06/07 00:14:38;;;;;;;5.77;3.90;;;16.30;99.90;;;;;;5034002;28;20543;-72
2022/06/07 00:17:05;;;;;;;4.00;3.47;;;16.30;99.90;;;;;;5034033;28;20406;-71
2022/06/07 00:19:31;;;;;;;3.83;3.03;;;16.30;99.90;;;;;;5034253;28;20400;-71
2022/06/07 00:21:57;;;;;;;5.03;3.40;;;16.20;99.90;;;;;;5033783;28;20459;-71
2022/06/07 00:24:24;;;;;;;4.50;4.10;;;16.20;99.90;;;;;;5033856;28;20464;-71
2022/06/07 00:26:50;;;;;;;6.17;3.50;;;16.20;99.90;;;;;;5033653;28;20404;-71
2022/06/07 00:29:15;;;;;;;3.77;3.47;;;16.20;99.90;;;;;;5033842;28;20480;-71
2022/06/07 00:31:41;;;;;;;4.97;3.43;;;16.10;99.90;;;;;;5033829;28;20184;-71
2022/06/07 00:34:07;;;;;;;4.80;4.40;;;16.10;99.90;;;;;;5033645;28;20214;-71
2022/06/07 00:36:34;;;;;;;4.57;3.40;;;16.10;99.90;;;;;;5033398;28;20299;-72
2022/06/07 00:39:00;;;;;;;6.10;4.57;;;16.10;99.90;;;;;;5033654;28;20442;-72
2022/06/07 00:41:26;;;;;;;3.67;3.33;;;16.10;99.90;;;;;;5033047;28;20451;-71
2022/06/07 00:44:30;;;;;;;3.77;3.20;;;16.10;99.90;;;;;;5033415;28;20586;-71
2022/06/07 00:47:00;;;;;;;3.10;2.80;;;16.00;99.90;;;;;;5032964;28;20184;-71
2022/06/07 00:49:29;;;;;;;3.60;3.30;;;16.00;99.90;;;;;;5033071;28;20422;-71
2022/06/07 00:51:55;;;;;;;3.73;3.27;;;16.00;99.90;;;;;;5033555;28;20404;-72
2022/06/07 00:54:22;;;;;;;4.23;3.40;;;16.00;99.90;;;;;;5033206;28;20857;-71
2022/06/07 00:56:49;;;;;;;4.90;4.50;;;16.00;99.90;;;;;;5032988;28;20174;-71
2022/06/07 00:59:14;;;;;;;4.93;4.00;;;16.00;99.90;;;;;;5032892;28;20433;-70
2022/06/07 01:01:40;;;;;;;4.87;3.20;;;16.00;99.90;;;;;;5033122;28;20454;-71
2022/06/07 01:04:06;;;;;;;5.07;4.30;;;15.90;99.90;;;;;;5033102;28;20398;-71
2022/06/07 01:12:00;;;;;;;5.37;4.87;;;15.90;99.90;;;;;;5032667;28;20453;-70
2022/06/07 01:14:25;;;;;;;5.30;4.67;;;15.90;99.90;;;;;;5032856;28;20406;-71
2022/06/07 01:16:51;;;;;;;5.40;3.83;;;15.80;99.90;;;;;;5033052;28;20608;-71
2022/06/07 01:19:16;;;;;;;6.53;4.47;;;15.80;99.90;;;;;;5033213;28;20241;-71
2022/06/07 01:21:43;;;;;;;5.30;4.47;;;15.90;99.90;;;;;;5032685;28;20211;-71
2022/06/07 01:24:09;;;;;;;4.83;3.80;;;15.90;99.90;;;;;;5032693;28;20175;-70
2022/06/07 01:26:34;;;;;;;5.40;4.17;;;15.90;99.90;;;;;;5032259;28;20406;-71
2022/06/07 01:29:01;;;;;;;4.47;3.70;;;15.80;99.90;;;;;;5032797;28;20765;-71
2022/06/07 01:31:27;;;;;;;4.13;3.73;;;15.80;99.90;;;;;;5032580;28;20171;-71
2022/06/07 01:33:53;;;;;;;3.93;3.17;;;15.80;99.90;;;;;;5032646;28;20410;-71
2022/06/07 01:36:19;;;;;;;4.30;3.90;;;15.70;99.90;;;;;;5032303;28;20255;-71
2022/06/07 01:41:53;;;;;;;8.93;5.10;;;15.70;99.90;;;;;;5032529;28;20863;-71
2022/06/07 01:44:16;;;;;;;4.23;3.83;;;15.70;99.90;;;;;;5032324;28;20414;-70
2022/06/07 01:46:42;;;;;;;4.53;4.00;;;15.70;99.90;;;;;;5029750;28;20406;-71
2022/06/07 01:49:08;;;;;;;4.03;3.63;;;15.70;99.90;;;;;;5032278;28;20272;-71
2022/06/07 01:51:34;;;;;;;5.83;4.13;;;15.60;99.90;;;;;;5032170;28;20168;-71
2022/06/07 01:53:59;;;;;;;5.80;4.00;;;15.60;99.90;;;;;;5032079;28;20441;-70
2022/06/07 01:56:26;;;;;;;4.53;4.03;;;15.70;99.90;;;;;;5031883;28;20257;-70
2022/06/07 01:58:52;;;;;;;3.90;3.40;;;15.70;99.90;;;;;;5032120;28;20941;-71
2022/06/07 02:01:18;;;;;;;4.60;3.63;;;15.70;99.90;;;;;;5031165;28;20211;-71
2022/06/07 02:03:43;;;;;;;5.27;4.00;;;15.70;99.90;;;;;;5032104;28;20183;-71
2022/06/07 02:06:12;;;;;;;5.97;4.83;;;15.70;99.90;;;;;;5032004;28;20226;-71
2022/06/07 02:08:40;;;;;;;4.40;4.00;;;15.70;99.90;;;;;;5031797;28;20225;-71
2022/06/07 02:11:12;;;;;;;5.83;5.23;;;15.70;99.90;;;;;;5031881;28;20781;-71
2022/06/07 02:13:39;;;;;;;5.97;4.87;;;15.70;99.90;;;;;;5031880;28;20912;-71
2022/06/07 02:16:06;;;;;;;4.23;3.83;;;15.70;99.90;;;;;;5031689;28;20440;-71
2022/06/07 02:18:32;;;;;;;5.60;4.23;;;15.70;99.90;;;;;;5031816;28;20503;-71
2022/06/07 02:21:00;;;;;;;5.87;4.60;;;15.70;99.90;;;;;;5031796;28;20454;-71
2022/06/07 02:23:26;;;;;;;4.57;4.17;;;15.70;99.90;;;;;;5031623;28;20522;-71
2022/06/07 02:26:11;;;;;;;4.27;3.87;;;15.60;99.90;;;;;;5031388;28;20846;-71
2022/06/07 02:28:39;;;;;;;3.67;3.13;;;15.60;99.90;;;;;;5031627;28;20423;-71
2022/06/07 02:31:07;;;;;;;4.73;4.10;;;15.60;99.90;;;;;;5031651;28;20415;-71
2022/06/07 02:33:34;;;;;;;4.80;4.10;;;15.60;99.90;;;;;;5030298;28;20934;-71
2022/06/07 02:36:00;;;;;;;5.00;4.60;;;15.60;99.90;;;;;;5031352;28;20415;-71
2022/06/07 02:38:26;;;;;;;5.03;4.47;;;15.50;99.90;;;;;;5031415;28;20438;-71
2022/06/07 02:40:53;;;;;;;4.73;4.20;;;15.40;99.90;;;;;;5031452;28;20227;-71
2022/06/07 02:43:20;;;;;;;4.63;3.83;;;15.40;99.90;;;;;;5031521;28;20465;-71
2022/06/07 02:45:45;;;;;;;4.77;4.27;;;15.40;99.90;;;;;;5031358;28;20421;-71
2022/06/07 02:48:11;;;;;;;6.87;4.67;;;15.50;99.90;;;;;;5031180;28;20426;-71
2022/06/07 02:50:37;;;;;;;6.00;4.20;;;15.50;99.90;;;;;;5031584;28;20176;-71
2022/06/07 02:53:04;;;;;;;6.30;4.50;;;15.50;99.90;;;;;;5031393;28;20175;-71
2022/06/07 02:55:30;;;;;;;5.60;4.00;;;15.40;99.90;;;;;;5030981;28;20421;-71
2022/06/07 02:57:55;;;;;;;14.23;7.73;;;15.40;99.90;;;;;;5031351;28;20431;-71
2022/06/07 03:00:21;;;;;;;9.23;6.67;;;15.30;99.90;;;;;;5031450;28;20929;-71
2022/06/07 03:02:48;;;;;;;7.63;4.47;;;15.30;99.90;;;;;;5031650;28;20254;-71
2022/06/07 03:05:15;;;;;;;5.63;4.23;;;15.30;99.90;;;;;;5031282;28;20420;-71
2022/06/07 03:07:41;;;;;;;6.03;4.73;;;15.30;99.90;;;;;;5031303;28;21003;-71
2022/06/07 03:10:08;;;;;;;5.20;4.17;;;15.30;99.90;;;;;;5030270;28;20841;-71
2022/06/07 03:12:35;;;;;;;6.77;4.97;;;15.40;99.90;;;;;;5033575;28;20417;-71
2022/06/07 03:15:01;;;;;;;6.27;4.43;;;15.30;99.90;;;;;;5057298;22;20538;-69
2022/06/07 03:17:26;;;;;;;5.60;4.00;;;15.30;99.90;;;;;;5034963;28;20490;-68
2022/06/07 03:19:52;;;;;;;4.87;3.83;;;15.40;99.90;;;;;;5034800;28;20398;-68
2022/06/07 03:22:19;;;;;;;5.97;4.90;;;15.30;99.90;;;;;;5034537;28;20228;-69
2022/06/07 03:24:45;;;;;;;11.80;5.73;;;15.40;99.90;;;;;;5033168;28;20974;-68
2022/06/07 03:27:12;;;;;;;6.00;4.70;;;15.30;99.90;;;;;;5035235;28;20477;-68
2022/06/07 03:29:38;;;;;;;9.60;5.37;;;15.30;99.90;;;;;;5034726;28;20517;-69
2022/06/07 03:32:06;;;;;;;9.57;5.60;;;15.40;99.90;;;;;;5034784;28;20494;-69
2022/06/07 03:34:32;;;;;;;12.90;6.50;;;15.50;99.90;;;;;;5034420;28;20372;-72
2022/06/07 03:36:58;;;;;;;9.80;5.17;;;15.60;99.90;;;;;;5034573;28;20432;-69
2022/06/07 03:39:23;;;;;;;8.00;5.83;;;15.70;99.90;;;;;;5034218;28;20916;-69
2022/06/07 03:41:49;;;;;;;9.50;5.17;;;15.80;99.90;;;;;;5034088;28;20200;-68
2022/06/07 03:44:14;;;;;;;5.70;4.70;;;15.80;99.90;;;;;;5033971;28;20233;-69
2022/06/07 03:46:43;;;;;;;3.30;2.83;;;15.80;99.90;;;;;;5033786;28;20160;-71
2022/06/07 03:49:09;;;;;;;2.93;2.63;;;15.90;99.90;;;;;;5034137;28;20159;-68
2022/06/07 03:51:35;;;;;;;2.80;2.60;;;15.90;99.90;;;;;;5033482;28;20414;-69
2022/06/07 03:54:02;;;;;;;3.90;3.37;;;16.00;99.90;;;;;;5034105;28;20484;-70
2022/06/07 03:56:28;;;;;;;2.43;2.20;;;16.00;99.90;;;;;;5032176;28;20171;-68
2022/06/07 03:58:54;;;;;;;10.57;6.93;;;16.00;99.90;;;;;;5033886;28;20414;-68
2022/06/07 04:01:22;;;;;;;3.23;2.93;;;16.20;99.90;;;;;;5033559;28;20204;-68
2022/06/07 04:03:50;;;;;;;2.63;2.40;;;16.20;99.90;;;;;;5033649;28;20427;-69
2022/06/07 04:06:19;;;;;;;4.20;2.90;;;16.20;99.90;;;;;;5033259;28;20422;-68
2022/06/07 04:08:45;;;;;;;5.03;3.17;;;16.20;99.90;;;;;;5033775;28;20884;-68
2022/06/07 04:11:13;;;;;;;2.70;2.47;;;16.20;99.90;;;;;;5031856;28;20485;-68
2022/06/07 04:13:38;;;;;;;2.47;2.27;;;16.10;99.90;;;;;;5022530;28;20193;-68
2022/06/07 04:16:06;;;;;;;2.97;2.70;;;16.20;99.90;;;;;;5030585;28;20415;-69
2022/06/07 04:18:32;;;;;;;2.80;2.60;;;16.60;99.90;;;;;;5033432;28;20176;-68
2022/06/07 04:20:58;;;;;;;2.07;1.90;;;16.90;99.90;;;;;;5021432;28;20449;-68
2022/06/07 04:23:24;;;;;;;4.47;3.50;;;16.50;99.90;;;;;;5026104;28;20181;-68
2022/06/07 04:25:49;;;;;;;3.60;2.23;;;16.70;99.90;;;;;;5033337;28;20488;-69
2022/06/07 04:28:15;;;;;;;3.57;2.30;;;17.40;99.90;;;;;;5031509;28;20181;-68
2022/06/07 04:30:49;;;;;;;1.90;1.80;;;17.70;99.90;;;;;;5015298;28;20535;-69
2022/06/07 04:33:16;;;;;;;2.83;2.10;;;18.80;99.90;;;;;;5033575;28;20224;-68
2022/06/07 04:35:42;;;;;;;2.77;1.90;;;18.40;99.90;;;;;;5033417;28;20510;-68
2022/06/07 04:38:08;;;;;;;1.83;1.70;;;18.10;99.90;;;;;;5033979;28;20951;-68
2022/06/07 04:40:34;;;;;;;2.57;2.27;;;18.20;99.90;;;;;;5033488;28;21001;-68
2022/06/07 04:43:00;;;;;;;2.63;2.43;;;18.00;99.90;;;;;;5033759;28;20409;-68
2022/06/07 04:45:26;;;;;;;2.23;2.03;;;18.20;99.90;;;;;;5039101;28;20439;-69
2022/06/07 04:47:51;;;;;;;2.33;2.13;;;18.50;99.90;;;;;;5033444;28;20176;-67
2022/06/07 04:50:18;;;;;;;2.13;1.93;;;18.50;99.90;;;;;;5032972;28;20957;-68
2022/06/07 04:52:45;;;;;;;2.03;1.80;;;18.30;99.90;;;;;;5033067;28;20173;-67
2022/06/07 04:55:12;;;;;;;2.27;1.77;;;18.20;99.90;;;;;;5032600;28;20769;-68
2022/06/07 04:57:38;;;;;;;1.87;1.53;;;19.00;99.90;;;;;;5032684;28;20515;-69
2022/06/07 05:00:05;;;;;;;1.70;1.60;;;19.20;99.90;;;;;;5032651;28;20507;-69
2022/06/07 05:02:31;;;;;;;2.10;1.90;;;19.40;99.90;;;;;;5032811;28;20657;-68
2022/06/07 05:04:56;;;;;;;1.73;1.63;;;19.70;99.90;;;;;;5032615;28;20464;-69
2022/06/07 05:07:22;;;;;;;1.70;1.60;;;20.20;99.90;;;;;;5032539;28;20194;-68
2022/06/07 05:09:48;;;;;;;1.93;1.83;;;21.00;99.90;;;;;;5032623;28;20184;-68
2022/06/07 05:12:14;;;;;;;2.10;1.93;;;20.60;99.90;;;;;;5032438;28;20188;-68
2022/06/07 05:14:41;;;;;;;2.10;1.80;;;20.50;99.90;;;;;;5032249;28;20543;-68
2022/06/07 05:17:06;;;;;;;1.70;1.37;;;19.90;99.90;;;;;;5032437;28;20843;-68
2022/06/07 05:19:33;;;;;;;2.93;1.60;;;20.40;99.90;;;;;;5032331;28;20452;-68
2022/06/07 05:22:00;;;;;;;1.70;1.60;;;19.80;99.90;;;;;;5032032;28;20283;-68
2022/06/07 05:24:26;;;;;;;1.53;1.43;;;20.20;99.90;;;;;;5032248;28;20430;-68
2022/06/07 05:26:54;;;;;;;2.67;2.03;;;20.40;99.90;;;;;;5032039;28;20482;-68
2022/06/07 05:29:44;;;;;;;2.70;1.70;;;20.60;99.90;;;;;;5032526;28;20634;-69
2022/06/07 05:32:09;;;;;;;1.80;1.70;;;21.30;99.90;;;;;;5032468;28;20411;-70
2022/06/07 05:34:35;;;;;;;1.80;1.60;;;21.30;99.90;;;;;;5032568;28;20450;-71
2022/06/07 05:37:00;;;;;;;2.00;1.90;;;21.30;99.90;;;;;;5032557;28;20170;-68
2022/06/07 05:39:28;;;;;;;1.43;1.33;;;21.30;99.90;;;;;;5032844;28;20236;-69
2022/06/07 05:41:55;;;;;;;1.37;1.20;;;21.40;99.90;;;;;;5033474;28;20285;-68
2022/06/07 05:44:22;;;;;;;1.87;1.67;;;21.80;99.90;;;;;;5034137;28;20529;-68
2022/06/07 05:46:48;;;;;;;1.30;1.17;;;22.70;99.90;;;;;;5022305;28;20833;-69
2022/06/07 05:49:14;;;;;;;1.53;1.43;;;23.20;99.90;;;;;;5028910;28;20405;-68
2022/06/07 05:51:40;;;;;;;2.70;1.63;;;22.50;99.90;;;;;;5051149;28;20175;-69
2022/06/07 05:54:06;;;;;;;1.73;1.57;;;22.50;99.90;;;;;;5052383;28;20779;-68
2022/06/07 05:56:33;;;;;;;2.07;1.80;;;22.70;99.90;;;;;;5039141;28;20189;-69
2022/06/07 05:58:59;;;;;;;1.10;1.00;;;23.10;99.90;;;;;;5033028;28;20413;-69
2022/06/07 06:01:26;;;;;;;1.37;1.27;;;23.20;99.90;;;;;;5032432;28;20470;-69
2022/06/07 06:03:54;;;;;;;1.70;1.20;;;23.50;99.90;;;;;;5032554;28;20199;-69
2022/06/07 06:06:20;;;;;;;1.40;1.30;;;22.90;99.90;;;;;;5032327;28;20414;-69
2022/06/07 06:11:31;;;;;;;2.70;1.40;;;22.00;99.90;;;;;;5032155;28;20177;-69
2022/06/07 06:13:57;;;;;;;1.30;1.20;;;22.60;99.90;;;;;;5031927;28;20465;-69
2022/06/07 06:16:23;;;;;;;1.37;1.27;;;22.70;99.90;;;;;;5031762;28;20414;-69
2022/06/07 06:18:51;;;;;;;1.80;1.10;;;21.00;99.90;;;;;;5031975;28;20173;-69
2022/06/07 06:21:19;;;;;;;1.60;1.20;;;21.10;99.90;;;;;;5031688;28;20868;-69
2022/06/07 06:23:45;;;;;;;1.80;1.70;;;21.90;99.90;;;;;;5031703;28;20473;-69
2022/06/07 06:26:13;;;;;;;1.40;1.30;;;22.20;99.90;;;;;;5031481;28;20450;-67
2022/06/07 06:28:39;;;;;;;1.63;1.10;;;22.20;99.90;;;;;;5032287;28;20406;-67
2022/06/07 06:31:07;;;;;;;2.90;1.60;;;22.60;99.90;;;;;;5034201;28;20520;-68
2022/06/07 06:33:44;;;;;;;3.63;1.43;;;22.30;99.90;;;;;;5037460;28;20170;-68
2022/06/07 06:36:11;;;;;;;1.23;1.10;;;22.60;99.90;;;;;;5031740;28;20909;-68
2022/06/07 06:38:37;;;;;;;1.50;1.10;;;21.60;99.90;;;;;;5032150;28;20410;-68
2022/06/07 06:41:14;;;;;;;1.47;1.00;;;21.60;99.90;;;;;;5031561;28;20453;-68
2022/06/07 06:43:41;;;;;;;1.80;1.40;;;21.10;99.90;;;;;;5031778;28;20459;-68
2022/06/07 06:46:19;;;;;;;1.70;1.60;;;21.70;99.90;;;;;;5032359;28;20402;-68
2022/06/07 06:48:45;;;;;;;3.60;1.70;;;22.20;99.90;;;;;;5038300;28;20416;-69
2022/06/07 06:51:13;;;;;;;1.87;1.77;;;22.00;99.90;;;;;;5038360;28;20512;-69
2022/06/07 06:53:41;;;;;;;1.23;1.10;;;21.20;99.90;;;;;;5038547;28;20439;-69
2022/06/07 06:56:09;;;;;;;1.33;1.20;;;21.00;99.90;;;;;;5038059;28;20408;-68
2022/06/07 06:58:34;;;;;;;1.40;1.20;;;21.00;99.90;;;;;;5038206;28;20411;-68
2022/06/07 07:01:12;;;;;;;1.67;1.40;;;21.40;99.90;;;;;;5038424;28;20449;-69
2022/06/07 07:03:39;;;;;;;3.43;1.10;;;22.30;99.90;;;;;;5038441;28;20179;-68
2022/06/07 07:06:07;;;;;;;0.90;0.90;;;23.00;99.90;;;;;;5038135;28;20450;-70
2022/06/07 07:08:35;;;;;;;2.30;1.10;;;23.80;99.20;;;;;;5038406;28;21003;-69
2022/06/07 07:11:14;;;;;;;3.70;1.00;;;23.10;99.80;;;;;;5038695;28;20416;-70
2022/06/07 07:13:41;;;;;;;1.43;1.20;;;24.20;99.60;;;;;;5046539;28;20443;-72
2022/06/07 07:16:10;;;;;;;1.57;1.10;;;25.40;97.20;;;;;;5048285;28;20488;-72
2022/06/07 07:18:36;;;;;;;1.43;1.00;;;25.60;96.30;;;;;;5049454;28;20459;-71
2022/06/07 07:21:04;;;;;;;2.20;1.17;;;25.50;95.10;;;;;;5043819;28;20450;-70
2022/06/07 07:23:30;;;;;;;1.00;0.90;;;25.20;94.90;;;;;;5038707;28;20409;-71
2022/06/07 07:26:10;;;;;;;2.30;1.17;;;25.60;93.80;;;;;;5038137;28;20814;-70
2022/06/07 07:28:37;;;;;;;1.10;1.00;;;25.10;93.90;;;;;;5038075;28;20602;-70
2022/06/07 07:31:06;;;;;;;1.20;1.10;;;25.80;95.40;;;;;;5038178;28;20440;-68
2022/06/07 07:33:33;;;;;;;0.90;0.73;;;27.10;92.10;;;;;;5037659;28;20425;-67
2022/06/07 07:36:04;;;;;;;1.27;1.00;;;27.50;89.60;;;;;;5037706;28;20789;-67
2022/06/07 07:38:30;;;;;;;1.30;1.07;;;27.40;89.30;;;;;;5037839;28;21107;-67
2022/06/07 07:40:56;;;;;;;1.10;0.80;;;27.00;87.10;;;;;;5037789;28;20446;-70
2022/06/07 07:43:21;;;;;;;1.80;0.90;;;25.70;88.90;;;;;;5036475;28;20777;-72
2022/06/07 07:45:52;;;;;;;0.83;0.83;;;25.60;86.50;;;;;;5037572;28;20191;-70
2022/06/07 07:48:18;;;;;;;0.93;0.83;;;26.30;89.10;;;;;;5037483;28;20170;-70
2022/06/07 07:50:44;;;;;;;1.73;1.10;;;26.70;89.30;;;;;;5038281;28;20804;-70
2022/06/07 07:53:10;;;;;;;1.63;1.00;;;26.10;86.50;;;;;;5040229;28;20406;-68
2022/06/07 07:55:42;;;;;;;2.10;0.90;;;24.80;90.20;;;;;;5040624;28;20483;-69
2022/06/07 07:58:09;;;;;;;2.00;1.60;;;26.10;88.40;;;;;;5036262;28;20777;-68
2022/06/07 08:00:34;;;;;;;0.80;0.73;;;25.00;88.00;;;;;;5035076;28;20454;-68
2022/06/07 08:03:00;;;;;;;1.77;1.03;;;25.50;89.40;;;;;;5034469;28;20779;-68
2022/06/07 08:05:25;;;;;;;0.87;0.80;;;25.60;88.90;;;;;;5034289;28;20214;-69
2022/06/07 08:07:51;;;;;;;1.83;1.33;;;25.40;90.50;;;;;;5034801;28;20171;-70
2022/06/07 08:10:17;;;;;;;0.87;0.87;;;25.60;89.90;;;;;;5034601;28;20179;-68
2022/06/07 08:12:43;;;;;;;1.43;1.00;;;24.70;90.60;;;;;;5034273;28;20406;-68
2022/06/07 08:15:10;;;;;;;1.10;1.00;;;24.20;90.70;;;;;;5033941;28;20225;-68
2022/06/07 08:17:35;;;;;;;1.73;0.90;;;24.60;90.60;;;;;;5034522;28;20429;-68
2022/06/07 08:20:01;;;;;;;1.93;1.00;;;24.40;89.20;;;;;;5037207;28;20425;-68
2022/06/07 08:22:26;;;;;;;0.93;0.93;;;24.40;92.10;;;;;;5035226;28;20163;-68
2022/06/07 08:24:52;;;;;;;1.00;0.80;;;25.10;91.40;;;;;;5034252;28;20187;-68
2022/06/07 08:27:18;;;;;;;1.30;1.00;;;25.90;89.20;;;;;;5034097;28;20304;-67
2022/06/07 08:29:44;;;;;;;1.27;1.17;;;24.90;89.30;;;;;;5038804;28;20155;-68
2022/06/07 08:32:10;;;;;;;1.20;1.10;;;24.70;88.80;;;;;;5034354;28;20416;-68
2022/06/07 08:37:36;;;;;;;4.30;2.50;;;24.90;90.10;;;;;;5034280;28;20668;-68
2022/06/07 08:40:05;;;;;;;1.40;1.30;;;25.10;89.20;;;;;;5032783;28;20414;-68
2022/06/07 08:42:37;;;;;;;8.27;2.93;;;24.90;91.00;;;;;;5033838;28;20418;-68
2022/06/07 08:45:12;;;;;;;1.07;0.97;;;25.00;89.60;;;;;;5034815;28;20422;-68
2022/06/07 08:47:44;;;;;;;1.30;1.20;;;25.10;89.40;;;;;;5035430;28;20895;-67
2022/06/07 08:50:17;;;;;;;4.90;3.77;;;24.20;90.40;;;;;;5035873;28;20961;-67
2022/06/07 08:52:44;;;;;;;1.03;0.93;;;25.10;90.50;;;;;;5035420;28;20389;-68
2022/06/07 08:55:27;;;;;;;3.60;1.00;;;24.40;90.30;;;;;;5034867;28;20476;-69
2022/06/07 08:58:01;;;;;;;1.10;1.00;;;24.30;90.50;;;;;;5035066;28;20452;-69
2022/06/07 09:00:31;;;;;;;1.20;1.10;;;24.30;88.10;;;;;;5036113;28;20532;-69
2022/06/07 09:03:05;;;;;;;1.20;0.90;;;25.10;90.60;;;;;;5037449;28;20398;-70
2022/06/07 09:05:31;;;;;;;1.00;0.70;;;26.00;84.40;;;;;;5038280;28;20479;-70
2022/06/07 09:07:56;;;;;;;1.10;1.00;;;25.30;85.80;;;;;;5038417;28;20402;-68
2022/06/07 09:13:16;;;;;;;0.80;0.70;;;25.40;85.70;;;;;;5036803;28;20186;-69
2022/06/07 09:15:51;;;;;;;2.00;1.33;;;26.20;87.90;;;;;;5046240;22;20832;-66
2022/06/07 09:18:19;;;;;;;1.90;0.70;;;26.20;86.40;;;;;;5032628;28;20497;-68
2022/06/07 09:20:49;;;;;;;2.50;2.00;;;28.00;81.50;;;;;;5031046;28;20562;-67
2022/06/07 09:23:24;;;;;;;1.27;1.17;;;27.90;79.50;;;;;;5032398;28;20915;-65
2022/06/07 09:25:52;;;;;;;1.20;1.00;;;26.90;83.00;;;;;;5032790;28;20433;-66
2022/06/07 09:28:30;;;;;;;1.67;1.57;;;26.40;82.30;;;;;;5032314;28;20434;-66
2022/06/07 09:31:12;;;;;;;0.90;0.90;;;26.70;83.20;;;;;;5032028;28;20406;-66
2022/06/07 09:33:57;;;;;;;1.20;0.90;;;26.90;83.60;;;;;;5032445;28;20915;-66
2022/06/07 09:36:27;;;;;;;1.00;0.90;;;25.30;84.40;;;;;;5032334;28;20438;-67
2022/06/07 09:38:56;;;;;;;1.07;0.97;;;26.10;84.90;;;;;;5032179;28;20425;-66
2022/06/07 09:41:40;;;;;;;1.77;0.90;;;25.20;85.40;;;;;;5032535;28;20445;-66
2022/06/07 09:44:23;;;;;;;1.07;0.97;;;24.80;86.90;;;;;;5032350;28;20409;-66
2022/06/07 09:46:59;;;;;;;2.50;1.27;;;24.90;86.20;;;;;;5032243;28;20393;-66
2022/06/07 09:49:32;;;;;;;0.83;0.77;;;23.90;89.90;;;;;;5032113;28;20747;-66
2022/06/07 09:52:26;;;;;;;1.70;1.20;;;24.20;89.90;;;;;;5031784;28;20450;-66
2022/06/07 09:55:03;;;;;;;1.17;1.07;;;24.30;90.40;;;;;;5023653;28;20517;-66
2022/06/07 09:57:41;;;;;;;1.43;1.13;;;24.30;91.70;;;;;;5031771;28;20432;-65
2022/06/07 10:00:17;;;;;;;1.50;1.10;;;25.00;90.80;;;;;;5032462;28;20496;-65
2022/06/07 10:03:13;;;;;;;11.27;7.77;;;24.40;91.00;;;;;;5032282;28;20388;-66
2022/06/07 10:05:44;;;;;;;2.97;1.47;;;24.70;90.40;;;;;;5031813;28;20411;-67
2022/06/07 10:08:36;;;;;;;2.17;1.37;;;24.40;90.30;;;;;;5032030;28;20408;-66
2022/06/07 10:11:14;;;;;;;2.20;1.53;;;24.50;90.50;;;;;;5031434;28;20413;-66
2022/06/07 10:13:49;;;;;;;2.23;2.03;;;24.20;91.10;;;;;;5031543;28;20414;-66
2022/06/07 10:16:43;;;;;;;1.40;1.30;;;24.30;91.60;;;;;;5031434;28;20811;-66
2022/06/07 10:19:22;;;;;;;1.57;1.17;;;24.20;91.80;;;;;;5031574;28;20408;-67
2022/06/07 10:22:08;;;;;;;1.30;1.07;;;24.10;91.50;;;;;;5012256;28;20456;-68
2022/06/07 10:24:43;;;;;;;1.60;1.50;;;23.80;91.10;;;;;;5031640;28;20422;-68
2022/06/07 10:27:36;;;;;;;4.77;1.50;;;23.50;92.00;;;;;;5031431;28;20842;-68
2022/06/07 10:30:15;;;;;;;1.53;1.20;;;23.80;92.90;;;;;;5031652;28;20400;-68
2022/06/07 10:33:08;;;;;;;1.30;1.10;;;24.20;91.50;;;;;;5030127;28;20923;-69
2022/06/07 10:35:39;;;;;;;1.23;1.13;;;24.00;90.90;;;;;;5030847;28;20434;-69
2022/06/07 10:38:35;;;;;;;1.40;1.30;;;24.00;91.70;;;;;;5031189;28;20406;-69
2022/06/07 10:41:35;;;;;;;1.10;1.00;;;24.60;92.30;;;;;;5031390;28;20464;-68
2022/06/07 10:44:11;;;;;;;1.87;1.77;;;24.40;91.80;;;;;;5031076;28;20409;-69
2022/06/07 10:46:39;;;;;;;1.00;1.00;;;23.90;90.00;;;;;;5029990;28;20549;-69
2022/06/07 10:49:54;;;;;;;3.47;1.30;;;23.40;91.30;;;;;;5031209;28;20410;-69
2022/06/07 10:52:41;;;;;;;1.00;0.83;;;23.10;91.70;;;;;;5011210;28;20513;-68
2022/06/07 10:55:09;;;;;;;1.27;1.13;;;23.30;92.10;;;;;;5029512;28;20524;-69
2022/06/07 10:58:04;;;;;;;1.40;1.30;;;23.10;91.90;;;;;;5031047;28;20417;-69
2022/06/07 11:00:53;;;;;;;1.30;1.10;;;23.30;92.90;;;;;;5031050;28;20450;-68
2022/06/07 11:03:39;;;;;;;1.20;1.10;;;23.40;92.40;;;;;;5029699;28;20454;-68
2022/06/07 11:09:44;;;;;;;1.07;1.03;;;23.80;91.30;;;;;;5019257;28;20870;-68
2022/06/07 11:12:56;;;;;;;2.70;1.60;;;23.60;91.90;;;;;;5012837;28;20478;-70
2022/06/07 11:15:27;;;;;;;1.93;1.50;;;23.50;91.70;;;;;;5014320;28;20468;-65
2022/06/07 11:18:03;;;;;;;1.63;1.13;;;23.40;93.00;;;;;;5031242;28;20396;-67
2022/06/07 11:20:31;;;;;;;1.23;1.03;;;22.70;89.30;;;;;;5031097;28;20517;-66
2022/06/07 11:23:12;;;;;;;1.07;0.97;;;22.80;90.60;;;;;;5030979;28;20414;-66
2022/06/07 11:25:43;;;;;;;0.90;0.80;;;23.30;90.60;;;;;;5031114;28;20428;-66
2022/06/07 11:28:15;;;;;;;1.13;1.03;;;23.20;89.70;;;;;;5031055;28;20891;-66
2022/06/07 11:30:44;;;;;;;1.90;0.90;;;23.10;89.40;;;;;;5031034;28;20554;-66
2022/06/07 11:33:42;;;;;;;1.30;1.20;;;23.10;90.50;;;;;;5032410;28;20457;-67
2022/06/07 11:36:13;;;;;;;3.03;1.80;;;23.00;90.60;;;;;;5034440;28;20429;-67
2022/06/07 11:38:57;;;;;;;1.30;1.20;;;23.00;91.10;;;;;;5034614;28;20832;-66
2022/06/07 11:41:37;;;;;;;1.60;1.10;;;22.90;91.30;;;;;;5034625;28;20575;-67
2022/06/07 11:44:11;;;;;;;2.40;1.60;;;22.70;91.50;;;;;;5034556;28;20405;-67
2022/06/07 11:46:41;;;;;;;1.87;1.30;;;22.90;91.50;;;;;;5032912;28;20412;-67
2022/06/07 11:49:24;;;;;;;7.00;5.00;;;22.80;90.90;;;;;;5034464;28;20435;-67
2022/06/07 11:52:34;;;;;;;4.53;3.57;;;23.20;93.40;;;;;;5027413;28;20919;-67
2022/06/07 11:55:15;;;;;;;1.27;1.00;;;23.10;91.00;;;;;;5033962;28;20944;-66
2022/06/07 11:57:56;;;;;;;1.17;1.07;;;23.40;92.20;;;;;;5033103;28;20473;-67
2022/06/07 12:00:22;;;;;;;2.07;1.90;;;23.30;92.10;;;;;;5034109;28;21055;-71
2022/06/07 12:03:08;;;;;;;1.60;1.50;;;23.30;90.90;;;;;;5033903;28;20441;-67
2022/06/07 12:05:40;;;;;;;2.00;1.13;;;23.30;91.00;;;;;;5014259;28;20776;-67
2022/06/07 12:08:29;;;;;;;1.53;1.20;;;23.50;89.70;;;;;;5013000;28;20414;-66
2022/06/07 12:11:05;;;;;;;1.47;1.33;;;23.50;90.50;;;;;;5014080;28;20398;-67
2022/06/07 12:13:51;;;;;;;6.80;4.83;;;23.70;90.20;;;;;;5020967;28;20423;-65
2022/06/07 12:16:40;;;;;;;5.30;2.80;;;24.50;90.30;;;;;;5033517;28;20497;-66
2022/06/07 12:19:21;;;;;;;9.90;4.90;;;24.40;90.40;;;;;;5033746;28;20487;-66
2022/06/07 12:22:16;;;;;;;4.43;2.93;;;24.40;90.70;;;;;;5014477;28;20484;-66
2022/06/07 12:24:43;;;;;;;2.80;1.53;;;24.70;91.00;;;;;;5026443;28;20434;-66
2022/06/07 12:27:21;;;;;;;3.40;2.73;;;24.60;90.80;;;;;;5032499;28;20415;-65
2022/06/07 12:29:47;;;;;;;2.60;1.20;;;24.40;90.20;;;;;;5032977;28;20469;-66
2022/06/07 12:32:36;;;;;;;1.10;0.83;;;24.50;90.90;;;;;;5033162;28;20490;-66
2022/06/07 12:35:04;;;;;;;0.87;0.87;;;24.20;89.20;;;;;;5033268;28;20433;-66
2022/06/07 12:37:32;;;;;;;1.50;1.10;;;24.30;89.40;;;;;;5033552;28;20403;-66
2022/06/07 12:39:58;;;;;;;1.60;1.40;;;24.20;85.20;;;;;;5033392;28;20437;-66
2022/06/07 12:42:27;;;;;;;1.03;0.93;;;24.50;86.40;;;;;;5033216;28;20454;-65
2022/06/07 12:45:02;;;;;;;0.97;0.93;;;24.60;88.80;;;;;;5032066;28;20526;-66
2022/06/07 12:47:30;;;;;;;1.30;1.20;;;24.80;84.20;;;;;;5032761;28;20412;-66
2022/06/07 12:49:56;;;;;;;2.00;1.40;;;24.70;83.10;;;;;;5031874;28;20406;-66
2022/06/07 12:52:26;;;;;;;2.43;1.23;;;24.40;78.40;;;;;;5033059;28;20422;-66
2022/06/07 12:55:00;;;;;;;1.00;0.90;;;24.50;81.70;;;;;;5032808;28;20197;-66
2022/06/07 12:57:31;;;;;;;1.70;1.07;;;24.40;79.00;;;;;;5032808;28;20424;-66
2022/06/07 13:00:20;;;;;;;2.43;1.40;;;24.00;79.30;;;;;;5033089;28;20405;-66
2022/06/07 13:02:56;;;;;;;0.83;0.80;;;23.80;81.70;;;;;;5032746;28;20409;-65
2022/06/07 13:05:29;;;;;;;0.87;0.87;;;23.90;82.50;;;;;;5032715;28;20456;-67
2022/06/07 13:07:58;;;;;;;2.23;1.00;;;23.90;82.70;;;;;;5032864;28;20939;-66
2022/06/07 13:10:27;;;;;;;21.07;13.43;;;23.90;81.40;;;;;;5032836;28;20413;-66
2022/06/07 13:12:57;;;;;;;21.00;13.23;;;24.00;81.80;;;;;;5032525;28;20474;-66
2022/06/07 13:15:27;;;;;;;4.60;3.47;;;24.60;81.60;;;;;;5031809;28;20923;-64
2022/06/07 13:17:52;;;;;;;10.60;6.90;;;24.90;81.70;;;;;;5031846;28;20404;-65
2022/06/07 13:20:33;;;;;;;9.67;6.87;;;25.40;82.00;;;;;;5031632;28;20786;-67
2022/06/07 13:22:59;;;;;;;17.93;11.17;;;25.10;81.00;;;;;;5031706;28;20161;-66
2022/06/07 13:25:31;;;;;;;15.83;9.40;;;25.40;81.80;;;;;;5031342;28;20420;-68